Time;durP1;ratioP1;P1;durP2;ratioP2;P2;SDS_P1;SDS_P2;PMS_P1;PMS_P2;Temp;Humidity;BMP_temperature;BMP_pressure;BME280_temperature;BME280_humidity;BME280_pressure;Samples;Min_cycle;Max_cycle;Signal;HPM_P1;HPM_P2
2022/09/24 00:02:14;;;;;;;0.00;0.00;;;14.00;99.90;;;;;;5042363;28;20436;-91
2022/09/24 00:04:42;;;;;;;0.00;0.00;;;14.00;99.90;;;;;;5041473;28;20571;-91
2022/09/24 00:07:11;;;;;;;0.00;0.00;;;14.00;99.90;;;;;;5044354;28;20445;-91
2022/09/24 00:09:40;;;;;;;0.00;0.00;;;14.00;99.90;;;;;;5042982;28;20449;-91
2022/09/24 00:12:11;;;;;;;0.00;0.00;;;14.00;99.90;;;;;;5042905;28;20460;-91
2022/09/24 00:14:39;;;;;;;0.00;0.00;;;14.00;99.90;;;;;;5042839;28;20912;-91
2022/09/24 00:17:07;;;;;;;0.00;0.00;;;14.00;99.90;;;;;;5040695;28;20924;-91
2022/09/24 00:19:35;;;;;;;0.00;0.00;;;14.00;99.90;;;;;;5039525;28;20472;-89
2022/09/24 00:22:03;;;;;;;0.00;0.00;;;14.00;99.90;;;;;;5042383;28;20468;-91
2022/09/24 00:27:18;;;;;;;0.00;0.00;;;14.00;99.90;;;;;;5046268;28;20424;-92
2022/09/24 00:29:46;;;;;;;0.00;0.00;;;14.00;99.90;;;;;;5046155;28;20492;-91
2022/09/24 00:32:14;;;;;;;0.00;0.00;;;14.00;99.90;;;;;;5045236;28;20444;-91
2022/09/24 00:34:42;;;;;;;0.00;0.00;;;14.00;99.90;;;;;;5046119;28;20809;-91
2022/09/24 00:37:10;;;;;;;0.00;0.00;;;14.00;99.90;;;;;;5045740;28;20456;-91
2022/09/24 00:39:40;;;;;;;0.00;0.00;;;14.00;99.90;;;;;;5049736;28;21049;-90
2022/09/24 00:42:09;;;;;;;0.00;0.00;;;14.00;99.90;;;;;;5052301;28;20453;-91
2022/09/24 00:44:52;;;;;;;0.00;0.00;;;14.00;99.90;;;;;;5058204;28;20441;-90
2022/09/24 00:47:31;;;;;;;0.00;0.00;;;14.00;99.90;;;;;;5051718;28;20443;-90
2022/09/24 00:50:20;;;;;;;0.00;0.00;;;14.00;99.90;;;;;;5051463;28;20495;-91
2022/09/24 00:52:52;;;;;;;0.00;0.00;;;14.00;99.90;;;;;;5047990;28;20853;-90
2022/09/24 00:55:23;;;;;;;0.00;0.00;;;14.00;99.90;;;;;;5045335;28;20524;-90
2022/09/24 00:57:55;;;;;;;0.00;0.00;;;14.00;99.90;;;;;;5045171;28;20456;-91
2022/09/24 01:00:23;;;;;;;0.00;0.00;;;14.00;99.90;;;;;;5044360;28;20854;-92
2022/09/24 01:02:54;;;;;;;0.00;0.00;;;14.00;99.90;;;;;;5044992;28;20479;-91
2022/09/24 01:05:22;;;;;;;0.00;0.00;;;14.00;99.90;;;;;;5045658;28;20441;-91
2022/09/24 01:07:51;;;;;;;0.00;0.00;;;13.90;99.90;;;;;;5043472;28;20464;-90
2022/09/24 01:13:18;;;;;;;0.00;0.00;;;14.00;99.90;;;;;;5044379;28;20471;-91
2022/09/24 01:15:52;;;;;;;0.00;0.00;;;13.90;99.90;;;;;;5045002;28;20453;-92
2022/09/24 01:18:28;;;;;;;0.00;0.00;;;13.90;99.90;;;;;;5045501;28;20428;-91
2022/09/24 01:21:24;;;;;;;0.00;0.00;;;13.90;99.90;;;;;;5044766;28;20522;-91
2022/09/24 01:24:16;;;;;;;0.00;0.00;;;13.90;99.90;;;;;;5042897;28;20445;-91
2022/09/24 01:27:00;;;;;;;0.00;0.00;;;13.80;99.90;;;;;;5036493;28;20454;-90
2022/09/24 01:29:40;;;;;;;0.00;0.00;;;13.90;99.90;;;;;;5044409;28;20426;-91
2022/09/24 01:35:25;;;;;;;0.00;0.00;;;13.80;99.90;;;;;;5022309;28;20995;-91
2022/09/24 01:37:59;;;;;;;0.00;0.00;;;13.80;99.90;;;;;;5023427;28;20458;-91
2022/09/24 01:40:29;;;;;;;0.00;0.00;;;13.80;99.90;;;;;;5026146;28;21032;-91
2022/09/24 01:42:59;;;;;;;0.00;0.00;;;13.80;99.90;;;;;;5025907;28;20453;-90
2022/09/24 01:45:31;;;;;;;0.00;0.00;;;13.80;99.90;;;;;;5027521;28;20422;-90
2022/09/24 01:48:00;;;;;;;0.00;0.00;;;13.80;99.90;;;;;;5039392;28;20457;-89
2022/09/24 01:50:32;;;;;;;0.00;0.00;;;13.80;99.90;;;;;;5022271;28;20470;-91
2022/09/24 01:53:05;;;;;;;0.00;0.00;;;13.80;99.90;;;;;;5022321;28;20481;-91
2022/09/24 01:55:38;;;;;;;0.00;0.00;;;13.80;99.90;;;;;;5026126;28;20452;-91
2022/09/24 01:58:10;;;;;;;0.00;0.00;;;13.80;99.90;;;;;;5026880;28;20478;-89
2022/09/24 02:00:45;;;;;;;0.00;0.00;;;13.80;99.90;;;;;;5038116;28;20488;-91
2022/09/24 02:03:17;;;;;;;0.00;0.00;;;13.90;99.90;;;;;;5043731;28;20861;-91
2022/09/24 02:05:51;;;;;;;0.00;0.00;;;13.80;99.90;;;;;;5043449;28;20453;-89
2022/09/24 02:08:22;;;;;;;0.00;0.00;;;13.80;99.90;;;;;;5042684;28;20519;-91
2022/09/24 02:10:54;;;;;;;0.00;0.00;;;13.80;99.90;;;;;;5043074;28;20469;-91
2022/09/24 02:13:26;;;;;;;0.00;0.00;;;13.80;99.90;;;;;;5041917;28;20901;-91
2022/09/24 02:19:16;;;;;;;0.00;0.00;;;13.80;99.90;;;;;;5972265;22;20544;-91
2022/09/24 02:21:46;;;;;;;0.00;0.00;;;13.80;99.90;;;;;;5017188;28;20490;-91
2022/09/24 02:24:17;;;;;;;0.00;0.00;;;13.80;99.90;;;;;;5017569;28;20461;-92
2022/09/24 02:26:45;;;;;;;0.00;0.00;;;13.80;99.90;;;;;;5018571;28;20464;-92
2022/09/24 02:29:13;;;;;;;0.00;0.00;;;13.80;99.90;;;;;;5038300;28;20437;-93
2022/09/24 02:31:46;;;;;;;0.00;0.00;;;13.80;99.90;;;;;;5024153;28;20474;-91
2022/09/24 02:34:21;;;;;;;0.00;0.00;;;13.80;99.90;;;;;;5016807;28;20504;-91
2022/09/24 02:36:54;;;;;;;0.00;0.00;;;13.80;99.90;;;;;;5017059;28;20449;-91
2022/09/24 02:39:22;;;;;;;0.00;0.00;;;13.70;99.90;;;;;;5017039;28;20435;-91
2022/09/24 02:41:52;;;;;;;0.00;0.00;;;13.80;99.90;;;;;;5016923;28;20480;-92
2022/09/24 02:44:21;;;;;;;0.00;0.00;;;13.70;99.90;;;;;;5019057;28;20508;-92
2022/09/24 02:46:49;;;;;;;0.00;0.00;;;13.70;99.90;;;;;;5025763;28;20465;-92
2022/09/24 02:49:18;;;;;;;0.00;0.00;;;13.80;99.90;;;;;;5018180;28;20461;-92
2022/09/24 02:51:46;;;;;;;0.00;0.00;;;13.80;99.90;;;;;;5017544;28;20446;-92
2022/09/24 02:54:16;;;;;;;0.00;0.00;;;13.80;99.90;;;;;;5017824;28;20508;-93
2022/09/24 02:56:44;;;;;;;0.00;0.00;;;13.80;99.90;;;;;;5018623;28;20476;-92
2022/09/24 02:59:13;;;;;;;0.00;0.00;;;13.80;99.90;;;;;;5017262;28;20458;-92
2022/09/24 03:01:41;;;;;;;0.00;0.00;;;13.80;99.90;;;;;;5020075;28;20498;-94
2022/09/24 03:04:10;;;;;;;0.00;0.00;;;13.80;99.90;;;;;;5021194;28;20461;-93
2022/09/24 03:06:39;;;;;;;0.00;0.00;;;13.80;99.90;;;;;;5020262;28;21044;-93
2022/09/24 03:09:07;;;;;;;0.00;0.00;;;13.80;99.90;;;;;;5021453;28;20460;-92
2022/09/24 03:11:36;;;;;;;0.00;0.00;;;13.80;99.90;;;;;;5018479;28;20569;-93
2022/09/24 03:14:04;;;;;;;0.00;0.00;;;13.80;99.90;;;;;;5018579;28;20929;-93
2022/09/24 03:16:32;;;;;;;0.00;0.00;;;13.80;99.90;;;;;;5018030;28;20458;-93
2022/09/24 03:19:00;;;;;;;0.00;0.00;;;13.80;99.90;;;;;;5017548;28;20940;-91
2022/09/24 03:21:28;;;;;;;0.00;0.00;;;13.80;99.90;;;;;;5015578;28;20486;-92
2022/09/24 03:23:56;;;;;;;0.00;0.00;;;13.90;99.90;;;;;;5016997;28;20474;-92
2022/09/24 03:26:24;;;;;;;0.00;0.00;;;13.90;99.90;;;;;;5016518;28;20520;-92
2022/09/24 03:28:54;;;;;;;0.00;0.00;;;13.90;99.90;;;;;;5016048;28;20461;-93
2022/09/24 03:31:22;;;;;;;0.00;0.00;;;13.90;99.90;;;;;;5035801;28;20461;-91
2022/09/24 03:33:51;;;;;;;0.00;0.00;;;13.90;99.90;;;;;;5022759;28;20902;-91
2022/09/24 03:36:21;;;;;;;0.00;0.00;;;13.90;99.90;;;;;;5016356;28;20446;-90
2022/09/24 03:38:51;;;;;;;0.00;0.00;;;13.90;99.90;;;;;;5016377;28;20454;-91
2022/09/24 03:41:19;;;;;;;0.00;0.00;;;13.90;99.90;;;;;;5016308;28;20492;-91
2022/09/24 03:43:47;;;;;;;0.00;0.00;;;13.90;99.90;;;;;;5015725;28;20485;-91
2022/09/24 03:46:17;;;;;;;0.00;0.00;;;13.90;99.90;;;;;;5016625;28;20446;-91
2022/09/24 03:48:46;;;;;;;0.00;0.00;;;13.90;99.90;;;;;;5015292;28;20445;-91
2022/09/24 03:51:17;;;;;;;0.00;0.00;;;13.90;99.90;;;;;;5015522;28;20473;-91
2022/09/24 03:53:45;;;;;;;0.00;0.00;;;13.90;99.90;;;;;;5015678;28;20523;-90
2022/09/24 03:56:13;;;;;;;0.00;0.00;;;13.90;99.90;;;;;;5016023;28;20461;-91
2022/09/24 03:58:46;;;;;;;0.00;0.00;;;13.90;99.90;;;;;;5016243;28;20450;-91
2022/09/24 04:01:20;;;;;;;0.00;0.00;;;13.90;99.90;;;;;;5015372;28;20482;-91
2022/09/24 04:03:49;;;;;;;0.00;0.00;;;13.90;99.90;;;;;;5016064;28;20864;-91
2022/09/24 04:06:17;;;;;;;0.00;0.00;;;13.90;99.90;;;;;;5015662;28;20508;-91
2022/09/24 04:08:52;;;;;;;0.00;0.00;;;13.80;99.90;;;;;;5016143;28;20421;-90
2022/09/24 04:11:20;;;;;;;0.00;0.00;;;13.80;99.90;;;;;;5016144;28;20470;-90
2022/09/24 04:13:48;;;;;;;0.00;0.00;;;13.80;99.90;;;;;;5015686;28;20445;-91
2022/09/24 04:16:17;;;;;;;0.00;0.00;;;13.80;99.90;;;;;;5016091;28;20636;-91
2022/09/24 04:18:47;;;;;;;0.00;0.00;;;13.80;99.90;;;;;;5016758;28;20836;-90
2022/09/24 04:21:15;;;;;;;0.00;0.00;;;13.80;99.90;;;;;;5016428;28;20486;-91
2022/09/24 04:23:43;;;;;;;0.00;0.00;;;13.70;99.90;;;;;;5019112;28;20486;-91
2022/09/24 04:26:12;;;;;;;0.00;0.00;;;13.80;99.90;;;;;;5016418;28;20446;-90
2022/09/24 04:28:44;;;;;;;0.00;0.00;;;13.80;99.90;;;;;;5017792;28;20457;-92
2022/09/24 04:31:11;;;;;;;0.00;0.00;;;13.80;99.90;;;;;;5016270;28;20458;-91
2022/09/24 04:33:41;;;;;;;0.00;0.00;;;13.80;99.90;;;;;;5035876;28;20442;-91
2022/09/24 04:36:09;;;;;;;0.00;0.00;;;13.80;99.90;;;;;;5023660;28;20454;-91
2022/09/24 04:38:37;;;;;;;0.00;0.00;;;13.80;99.90;;;;;;5014965;28;20442;-91
2022/09/24 04:41:06;;;;;;;0.00;0.00;;;13.80;99.90;;;;;;5014611;28;20478;-91
2022/09/24 04:43:35;;;;;;;0.00;0.00;;;13.80;99.90;;;;;;5015794;28;20442;-91
2022/09/24 04:46:04;;;;;;;0.00;0.00;;;13.80;99.90;;;;;;5014293;28;20601;-92
2022/09/24 04:48:33;;;;;;;0.00;0.00;;;13.90;99.90;;;;;;5014452;28;20457;-91
2022/09/24 04:51:04;;;;;;;0.00;0.00;;;13.90;99.90;;;;;;5016222;28;20803;-91
2022/09/24 04:53:32;;;;;;;0.00;0.00;;;13.90;99.90;;;;;;5018396;28;20442;-91
2022/09/24 04:56:01;;;;;;;0.00;0.00;;;13.90;99.90;;;;;;5018961;28;20446;-91
2022/09/24 04:58:29;;;;;;;0.00;0.00;;;13.90;99.90;;;;;;5018466;28;20460;-91
2022/09/24 05:00:57;;;;;;;0.00;0.00;;;13.90;99.90;;;;;;5019241;28;20473;-91
2022/09/24 05:03:25;;;;;;;0.00;0.00;;;13.90;99.90;;;;;;5020688;28;20457;-92
2022/09/24 05:05:53;;;;;;;0.00;0.00;;;13.90;99.90;;;;;;5039880;28;20827;-91
2022/09/24 05:08:22;;;;;;;0.00;0.00;;;13.90;99.90;;;;;;5037996;28;20452;-92
2022/09/24 05:10:52;;;;;;;0.00;0.00;;;13.90;99.90;;;;;;5038074;28;20472;-91
2022/09/24 05:13:20;;;;;;;0.00;0.00;;;13.90;99.90;;;;;;5037874;28;20480;-91
2022/09/24 05:15:48;;;;;;;0.00;0.00;;;13.90;99.90;;;;;;5038341;28;20462;-91
2022/09/24 05:18:16;;;;;;;0.00;0.00;;;13.90;99.90;;;;;;5038046;28;20460;-91
2022/09/24 05:20:44;;;;;;;0.00;0.00;;;13.90;99.90;;;;;;5037505;28;20469;-92
2022/09/24 05:23:12;;;;;;;0.00;0.00;;;13.90;99.90;;;;;;5039360;28;20472;-91
2022/09/24 05:28:23;;;;;;;0.00;0.00;;;13.90;99.90;;;;;;5037186;28;20524;-90
2022/09/24 05:30:50;;;;;;;0.00;0.00;;;13.90;99.90;;;;;;5038672;28;20535;-91
2022/09/24 05:33:19;;;;;;;0.00;0.00;;;13.90;99.90;;;;;;5039075;28;20471;-91
2022/09/24 05:35:53;;;;;;;0.00;0.00;;;14.00;99.90;;;;;;5052374;28;20464;-90
2022/09/24 05:38:21;;;;;;;0.00;0.00;;;14.00;99.90;;;;;;5047234;28;20432;-91
2022/09/24 05:40:51;;;;;;;0.00;0.00;;;14.00;99.90;;;;;;5037268;28;20473;-89
2022/09/24 05:43:19;;;;;;;0.00;0.00;;;14.00;99.90;;;;;;5037501;28;20821;-89
2022/09/24 05:45:47;;;;;;;0.00;0.00;;;14.10;99.90;;;;;;5036854;28;20800;-89
2022/09/24 05:48:16;;;;;;;0.00;0.00;;;14.10;99.90;;;;;;5037305;28;20836;-90
2022/09/24 05:50:44;;;;;;;0.00;0.00;;;14.10;99.90;;;;;;5036941;28;20473;-88
2022/09/24 05:53:12;;;;;;;0.00;0.00;;;14.10;99.90;;;;;;5037962;28;20433;-88
2022/09/24 05:55:40;;;;;;;0.00;0.00;;;14.10;99.90;;;;;;5021904;28;20454;-88
2022/09/24 05:58:11;;;;;;;0.00;0.00;;;14.10;99.90;;;;;;5018673;28;20450;-88
2022/09/24 06:00:39;;;;;;;0.00;0.00;;;14.10;99.90;;;;;;5017062;28;20482;-90
2022/09/24 06:03:11;;;;;;;0.00;0.00;;;14.20;99.90;;;;;;5017785;28;20473;-89
2022/09/24 06:05:44;;;;;;;0.00;0.00;;;14.20;99.90;;;;;;5017564;28;20500;-89
2022/09/24 06:08:14;;;;;;;0.00;0.00;;;14.20;99.90;;;;;;5017437;28;20442;-91
2022/09/24 06:10:42;;;;;;;0.00;0.00;;;14.20;99.90;;;;;;5017094;28;20470;-91
2022/09/24 06:13:13;;;;;;;0.00;0.00;;;14.20;99.90;;;;;;5017227;28;20944;-91
2022/09/24 06:15:41;;;;;;;0.00;0.00;;;14.20;99.90;;;;;;5017887;28;20427;-91
2022/09/24 06:18:09;;;;;;;0.00;0.00;;;14.20;99.90;;;;;;5016659;28;20454;-91
2022/09/24 06:20:39;;;;;;;0.00;0.00;;;14.20;99.90;;;;;;5019592;28;20870;-90
2022/09/24 06:23:07;;;;;;;0.00;0.00;;;14.20;99.90;;;;;;5018349;28;20482;-89
2022/09/24 06:25:39;;;;;;;0.00;0.00;;;14.20;99.90;;;;;;5019776;28;20564;-89
2022/09/24 06:28:07;;;;;;;0.00;0.00;;;14.30;99.90;;;;;;5017777;28;20508;-89
2022/09/24 06:30:38;;;;;;;0.00;0.00;;;14.30;99.90;;;;;;5017848;28;20572;-89
2022/09/24 06:33:08;;;;;;;0.00;0.00;;;14.30;99.90;;;;;;5018726;28;20454;-90
2022/09/24 06:35:37;;;;;;;0.00;0.00;;;14.30;99.90;;;;;;5019363;28;20541;-89
2022/09/24 06:38:07;;;;;;;0.00;0.00;;;14.30;99.90;;;;;;5036047;28;20426;-90
2022/09/24 06:40:35;;;;;;;0.00;0.00;;;14.20;99.90;;;;;;5027579;28;20454;-90
2022/09/24 06:43:05;;;;;;;0.00;0.00;;;14.20;99.90;;;;;;5018110;28;21003;-90
2022/09/24 06:45:33;;;;;;;0.00;0.00;;;14.20;99.90;;;;;;5018703;28;20434;-89
2022/09/24 06:48:05;;;;;;;0.00;0.00;;;14.20;99.90;;;;;;5020831;28;20538;-89
2022/09/24 06:50:34;;;;;;;0.00;0.00;;;14.20;99.90;;;;;;5028351;28;20474;-89
2022/09/24 06:53:05;;;;;;;0.00;0.00;;;14.20;99.90;;;;;;5028619;28;20477;-90
2022/09/24 06:55:34;;;;;;;0.00;0.00;;;14.20;99.90;;;;;;5039332;28;20456;-91
2022/09/24 06:58:03;;;;;;;0.00;0.00;;;14.20;99.90;;;;;;5051749;28;20503;-89
2022/09/24 07:00:31;;;;;;;0.00;0.00;;;14.20;99.90;;;;;;5054641;28;20475;-90
2022/09/24 07:03:00;;;;;;;0.00;0.00;;;14.20;99.90;;;;;;5058039;28;20487;-89
2022/09/24 07:05:29;;;;;;;0.00;0.00;;;14.20;99.90;;;;;;5058323;28;20472;-88
2022/09/24 07:07:57;;;;;;;0.00;0.00;;;14.20;99.90;;;;;;5058419;28;20425;-87
2022/09/24 07:10:26;;;;;;;0.00;0.00;;;14.20;99.90;;;;;;5058428;28;20453;-90
2022/09/24 07:12:55;;;;;;;0.00;0.00;;;14.20;99.90;;;;;;5058628;28;20418;-89
2022/09/24 07:15:22;;;;;;;0.00;0.00;;;14.20;99.90;;;;;;5058297;28;20441;-92
2022/09/24 07:17:55;;;;;;;0.00;0.00;;;14.20;99.90;;;;;;5058673;28;20444;-91
2022/09/24 07:20:23;;;;;;;0.00;0.00;;;14.30;99.90;;;;;;5058809;28;20445;-91
2022/09/24 07:22:52;;;;;;;0.00;0.00;;;14.30;99.90;;;;;;5058290;28;20469;-92
2022/09/24 07:25:20;;;;;;;0.00;0.00;;;14.30;99.90;;;;;;5057891;28;20464;-93
2022/09/24 07:27:48;;;;;;;0.00;0.00;;;14.30;99.90;;;;;;5057659;28;20479;-90
2022/09/24 07:30:17;;;;;;;0.00;0.00;;;14.20;99.90;;;;;;5045644;28;20473;-92
2022/09/24 07:32:45;;;;;;;0.00;0.00;;;14.10;99.90;;;;;;5045786;28;20472;-93
2022/09/24 07:35:14;;;;;;;0.00;0.00;;;14.10;99.90;;;;;;5046618;28;20441;-94
2022/09/24 07:37:42;;;;;;;0.00;0.00;;;14.10;99.90;;;;;;5047327;28;20525;-91
2022/09/24 07:40:11;;;;;;;0.00;0.00;;;14.10;99.90;;;;;;5054564;28;20472;-90
2022/09/24 07:42:47;;;;;;;0.00;0.00;;;14.00;99.90;;;;;;5051842;28;20519;-89
2022/09/24 07:45:16;;;;;;;0.00;0.00;;;14.00;99.90;;;;;;5040347;28;20456;-91
2022/09/24 07:47:44;;;;;;;0.00;0.00;;;14.00;99.90;;;;;;5037862;28;20464;-91
2022/09/24 07:50:12;;;;;;;0.00;0.00;;;14.00;99.90;;;;;;5037810;28;20484;-92
2022/09/24 07:52:40;;;;;;;0.00;0.00;;;14.00;99.90;;;;;;5039218;28;20476;-91
2022/09/24 07:55:09;;;;;;;0.00;0.00;;;14.10;99.90;;;;;;5038889;28;20477;-92
2022/09/24 07:57:39;;;;;;;0.00;0.00;;;14.00;99.90;;;;;;5042479;28;20549;-92
2022/09/24 08:00:08;;;;;;;0.00;0.00;;;14.00;99.90;;;;;;5041016;28;20473;-91
2022/09/24 08:02:36;;;;;;;0.00;0.00;;;14.00;99.90;;;;;;5045506;28;20868;-92
2022/09/24 08:05:05;;;;;;;0.00;0.00;;;14.00;99.90;;;;;;5043400;28;20449;-92
2022/09/24 08:07:34;;;;;;;0.00;0.00;;;14.00;99.90;;;;;;5048703;28;20499;-90
2022/09/24 08:10:03;;;;;;;0.00;0.00;;;14.00;99.90;;;;;;5053840;28;20479;-92
2022/09/24 08:12:30;;;;;;;0.00;0.00;;;14.10;99.90;;;;;;5057231;28;20456;-89
2022/09/24 08:15:00;;;;;;;0.00;0.00;;;14.20;99.90;;;;;;5057060;28;20445;-89
2022/09/24 08:17:27;;;;;;;0.00;0.00;;;14.30;99.90;;;;;;5057353;28;20417;-89
2022/09/24 08:19:55;;;;;;;0.00;0.00;;;14.30;99.90;;;;;;5055900;28;20481;-90
2022/09/24 08:22:25;;;;;;;0.00;0.00;;;14.40;99.90;;;;;;5053131;28;20536;-91
2022/09/24 08:24:53;;;;;;;0.00;0.00;;;14.40;99.90;;;;;;5055964;28;20499;-92
2022/09/24 08:27:22;;;;;;;0.00;0.00;;;14.40;99.90;;;;;;5058172;28;20511;-91
2022/09/24 08:29:50;;;;;;;0.00;0.00;;;14.40;99.90;;;;;;5057939;28;20468;-91
2022/09/24 08:32:20;;;;;;;0.00;0.00;;;14.40;99.90;;;;;;5059296;28;20461;-91
2022/09/24 08:34:48;;;;;;;0.00;0.00;;;14.40;99.90;;;;;;5060269;28;20501;-92
2022/09/24 08:37:20;;;;;;;0.00;0.00;;;14.40;99.90;;;;;;5059043;28;20449;-91
2022/09/24 08:39:48;;;;;;;0.00;0.00;;;14.40;99.90;;;;;;5057475;28;20477;-91
2022/09/24 08:42:33;;;;;;;0.00;0.00;;;14.40;99.90;;;;;;5059760;28;20513;-91
2022/09/24 08:47:55;;;;;;;0.00;0.00;;;14.50;99.90;;;;;;5046086;28;20442;-91
2022/09/24 08:50:27;;;;;;;0.00;0.00;;;14.50;99.90;;;;;;5045602;28;20484;-91
2022/09/24 08:53:07;;;;;;;0.00;0.00;;;14.60;99.90;;;;;;5046465;28;20540;-92
2022/09/24 08:55:42;;;;;;;0.00;0.00;;;14.70;99.90;;;;;;5045362;28;20455;-91
2022/09/24 08:58:32;;;;;;;0.00;0.00;;;14.70;99.90;;;;;;5046677;28;20441;-91
2022/09/24 09:01:08;;;;;;;0.00;0.00;;;14.80;99.90;;;;;;5047010;28;20485;-91
2022/09/24 09:03:44;;;;;;;0.00;0.00;;;14.80;99.90;;;;;;5047636;28;20488;-92
2022/09/24 09:06:30;;;;;;;0.00;0.00;;;14.70;99.90;;;;;;5049202;28;20437;-91
2022/09/24 09:09:08;;;;;;;0.00;0.00;;;14.70;99.90;;;;;;5045296;28;20449;-91
2022/09/24 09:11:40;;;;;;;0.00;0.00;;;14.80;99.90;;;;;;5044380;28;21049;-91
2022/09/24 09:14:16;;;;;;;0.00;0.00;;;14.80;99.90;;;;;;5052360;28;20449;-91
2022/09/24 09:16:49;;;;;;;0.00;0.00;;;14.70;99.90;;;;;;5043195;28;20445;-91
2022/09/24 09:19:22;;;;;;;0.00;0.00;;;14.70;99.90;;;;;;5043376;28;20495;-92
2022/09/24 09:21:56;;;;;;;0.00;0.00;;;14.80;99.90;;;;;;5043800;28;20457;-91
2022/09/24 09:24:31;;;;;;;0.00;0.00;;;14.80;99.90;;;;;;5046414;28;20565;-91
2022/09/24 09:27:03;;;;;;;0.00;0.00;;;14.80;99.90;;;;;;5047204;28;20496;-91
2022/09/24 09:29:34;;;;;;;0.00;0.00;;;14.80;99.90;;;;;;5046352;28;20497;-91
2022/09/24 09:32:20;;;;;;;0.00;0.00;;;14.70;99.90;;;;;;5048912;28;20455;-92
2022/09/24 09:34:59;;;;;;;0.00;0.00;;;14.70;99.90;;;;;;5046238;28;20790;-92
2022/09/24 09:37:33;;;;;;;0.00;0.00;;;14.70;99.90;;;;;;5045644;28;20512;-93
2022/09/24 09:40:22;;;;;;;0.00;0.00;;;14.70;99.90;;;;;;5048253;28;20496;-91
2022/09/24 09:43:02;;;;;;;0.00;0.00;;;14.80;99.90;;;;;;5045697;28;20479;-93
2022/09/24 09:45:38;;;;;;;0.00;0.00;;;14.80;99.90;;;;;;5051080;28;20500;-92
2022/09/24 09:48:11;;;;;;;0.00;0.00;;;14.90;99.90;;;;;;5054981;28;20521;-92
2022/09/24 09:50:45;;;;;;;0.00;0.00;;;14.80;99.90;;;;;;5049842;28;20480;-93
2022/09/24 09:53:21;;;;;;;0.00;0.00;;;14.80;99.90;;;;;;5045633;28;20468;-91
2022/09/24 09:55:54;;;;;;;0.00;0.00;;;14.70;99.90;;;;;;5048135;28;20437;-91
2022/09/24 09:58:24;;;;;;;0.00;0.00;;;14.70;99.90;;;;;;5044411;28;20449;-92
2022/09/24 10:00:53;;;;;;;0.00;0.00;;;14.70;99.90;;;;;;5043697;28;20476;-91
2022/09/24 10:03:26;;;;;;;0.00;0.00;;;14.80;99.90;;;;;;5045612;28;20480;-91
2022/09/24 10:06:00;;;;;;;0.00;0.00;;;14.80;99.90;;;;;;5044700;28;20469;-90
2022/09/24 10:08:29;;;;;;;0.00;0.00;;;14.80;99.90;;;;;;5044638;28;20480;-90
2022/09/24 10:10:59;;;;;;;0.00;0.00;;;14.70;99.90;;;;;;5029010;28;20474;-89
2022/09/24 10:13:31;;;;;;;0.00;0.00;;;14.70;99.90;;;;;;5021279;28;20473;-90
2022/09/24 10:16:02;;;;;;;0.00;0.00;;;14.80;99.90;;;;;;5024614;28;20476;-93
2022/09/24 10:18:36;;;;;;;0.00;0.00;;;14.80;99.90;;;;;;5021450;28;20457;-90
2022/09/24 10:21:12;;;;;;;0.00;0.00;;;14.90;99.90;;;;;;5023402;28;20486;-91
2022/09/24 10:23:46;;;;;;;0.00;0.00;;;15.00;99.90;;;;;;5027257;28;20478;-91
2022/09/24 10:26:14;;;;;;;0.00;0.00;;;15.10;99.90;;;;;;5027982;28;20478;-93
2022/09/24 10:32:00;;;;;;;0.00;0.00;;;15.20;99.90;;;;;;4998119;28;20477;-93
2022/09/24 10:34:44;;;;;;;0.00;0.00;;;15.30;99.90;;;;;;5022066;28;20540;-93
2022/09/24 10:37:20;;;;;;;0.00;0.00;;;15.30;99.90;;;;;;5022307;28;20457;-91
2022/09/24 10:39:57;;;;;;;0.00;0.00;;;15.30;99.90;;;;;;5021086;28;20469;-91
2022/09/24 10:42:29;;;;;;;0.00;0.00;;;15.40;99.90;;;;;;5020600;28;20944;-91
2022/09/24 10:45:03;;;;;;;0.00;0.00;;;15.40;99.90;;;;;;5021382;28;20528;-91
2022/09/24 10:47:42;;;;;;;0.00;0.00;;;15.40;99.90;;;;;;5024434;28;20496;-91
2022/09/24 10:50:25;;;;;;;0.00;0.00;;;15.30;99.90;;;;;;5035726;28;20476;-91
2022/09/24 10:53:00;;;;;;;0.00;0.00;;;15.30;99.90;;;;;;5024156;28;20438;-92
2022/09/24 10:55:48;;;;;;;0.00;0.00;;;15.30;99.90;;;;;;5021699;28;20450;-91
2022/09/24 10:58:46;;;;;;;0.00;0.00;;;15.40;99.90;;;;;;5017544;28;20442;-91
2022/09/24 11:01:18;;;;;;;0.00;0.00;;;15.30;99.90;;;;;;5017522;28;20504;-91
2022/09/24 11:04:16;;;;;;;0.00;0.00;;;15.30;99.90;;;;;;5018611;28;20493;-91
2022/09/24 11:06:57;;;;;;;0.00;0.00;;;15.30;99.90;;;;;;5019630;28;20533;-92
2022/09/24 11:09:33;;;;;;;0.00;0.00;;;15.30;99.90;;;;;;5018341;28;20438;-91
2022/09/24 11:12:14;;;;;;;0.00;0.00;;;15.20;99.90;;;;;;5016443;28;20469;-90
2022/09/24 11:14:57;;;;;;;0.00;0.00;;;15.20;99.90;;;;;;5018812;28;20451;-90
2022/09/24 11:17:33;;;;;;;0.00;0.00;;;15.20;99.90;;;;;;5016514;28;20435;-90
2022/09/24 11:20:14;;;;;;;0.00;0.00;;;15.30;99.90;;;;;;5018003;28;20462;-91
2022/09/24 11:23:00;;;;;;;0.00;0.00;;;15.30;99.90;;;;;;5018191;28;20457;-90
2022/09/24 11:25:37;;;;;;;0.00;0.00;;;15.40;99.90;;;;;;5017534;28;20553;-90
2022/09/24 11:28:22;;;;;;;0.00;0.00;;;15.40;99.90;;;;;;5022372;28;20465;-90
2022/09/24 11:31:05;;;;;;;0.00;0.00;;;15.50;99.90;;;;;;5016977;28;20470;-91
2022/09/24 11:33:53;;;;;;;0.00;0.00;;;15.50;99.90;;;;;;5003189;28;20454;-90
2022/09/24 11:36:42;;;;;;;0.00;0.00;;;15.50;99.90;;;;;;5018096;28;20461;-92
2022/09/24 11:39:32;;;;;;;0.00;0.00;;;15.50;99.90;;;;;;5029235;28;20485;-91
2022/09/24 11:42:13;;;;;;;0.00;0.00;;;15.50;99.90;;;;;;5017197;28;20453;-91
2022/09/24 11:45:15;;;;;;;0.00;0.00;;;15.50;99.90;;;;;;5019693;28;20477;-92
2022/09/24 11:48:02;;;;;;;0.00;0.00;;;15.60;99.90;;;;;;5020691;28;20482;-92
2022/09/24 11:50:53;;;;;;;0.00;0.00;;;15.50;99.90;;;;;;5019083;28;20457;-90
2022/09/24 11:53:30;;;;;;;0.00;0.00;;;15.50;99.90;;;;;;5034741;28;20436;-91
2022/09/24 11:56:03;;;;;;;0.00;0.00;;;15.50;99.90;;;;;;5022936;28;20937;-90
2022/09/24 11:58:43;;;;;;;0.00;0.00;;;15.50;99.90;;;;;;5019382;28;20454;-91
2022/09/24 12:01:14;;;;;;;0.00;0.00;;;15.50;99.90;;;;;;5019007;28;20973;-91
2022/09/24 12:03:46;;;;;;;0.00;0.00;;;15.50;99.90;;;;;;5021734;28;20529;-91
2022/09/24 12:06:20;;;;;;;0.00;0.00;;;15.60;99.90;;;;;;5019671;28;20465;-91
2022/09/24 12:08:55;;;;;;;0.00;0.00;;;15.60;99.90;;;;;;5021464;28;20454;-91
2022/09/24 12:11:29;;;;;;;0.00;0.00;;;15.60;99.90;;;;;;5020522;28;20527;-91
2022/09/24 12:14:05;;;;;;;0.00;0.00;;;15.60;99.90;;;;;;5020590;28;20457;-91
2022/09/24 12:16:37;;;;;;;0.00;0.00;;;15.70;99.90;;;;;;5019758;28;20448;-90
2022/09/24 12:19:11;;;;;;;0.00;0.00;;;15.70;99.90;;;;;;5019739;28;20422;-91
2022/09/24 12:21:41;;;;;;;0.00;0.00;;;15.70;99.90;;;;;;5018877;28;20837;-91
2022/09/24 12:24:15;;;;;;;0.00;0.00;;;15.70;99.90;;;;;;5019860;28;20480;-90
2022/09/24 12:26:46;;;;;;;0.00;0.00;;;15.80;99.90;;;;;;5019526;28;20477;-90
2022/09/24 12:35:31;;;;;;;0.00;0.00;;;15.80;99.90;;;;;;5021466;28;20817;-89
2022/09/24 12:38:03;;;;;;;0.00;0.00;;;15.80;99.90;;;;;;5019880;28;20434;-88
2022/09/24 12:41:07;;;;;;;0.00;0.00;;;15.80;99.90;;;;;;5021309;28;20458;-89
2022/09/24 12:43:41;;;;;;;0.00;0.00;;;15.80;99.90;;;;;;5019591;28;20501;-89
2022/09/24 12:46:18;;;;;;;0.00;0.00;;;15.80;99.90;;;;;;5019173;28;20467;-90
2022/09/24 12:48:48;;;;;;;0.00;0.00;;;15.80;99.90;;;;;;5021198;28;20490;-88
2022/09/24 12:51:21;;;;;;;0.00;0.00;;;15.80;99.90;;;;;;5017396;28;20481;-89
2022/09/24 12:53:57;;;;;;;0.00;0.00;;;15.80;99.90;;;;;;5017489;28;20453;-89
2022/09/24 12:56:28;;;;;;;0.00;0.00;;;15.80;99.90;;;;;;5037366;28;20423;-88
2022/09/24 12:58:57;;;;;;;0.00;0.00;;;15.80;99.90;;;;;;5023530;28;20472;-89
2022/09/24 13:01:32;;;;;;;0.00;0.00;;;15.80;99.90;;;;;;5020274;28;20520;-88
2022/09/24 13:04:24;;;;;;;0.00;0.00;;;15.80;99.90;;;;;;5020110;28;20469;-88
2022/09/24 13:06:53;;;;;;;0.00;0.00;;;15.80;99.90;;;;;;5019829;28;20477;-90
2022/09/24 13:09:34;;;;;;;0.00;0.00;;;15.80;99.90;;;;;;5018006;28;20449;-90
2022/09/24 13:12:05;;;;;;;0.00;0.00;;;15.90;99.90;;;;;;5017851;28;20921;-88
2022/09/24 13:14:34;;;;;;;0.00;0.00;;;15.90;99.90;;;;;;5018474;28;20814;-89
2022/09/24 13:17:07;;;;;;;0.00;0.00;;;15.90;99.90;;;;;;5019386;28;20442;-88
2022/09/24 13:19:39;;;;;;;0.00;0.00;;;16.00;99.90;;;;;;5022343;28;20474;-89
2022/09/24 13:22:21;;;;;;;0.00;0.00;;;16.00;99.90;;;;;;5022305;28;20462;-89
2022/09/24 13:24:51;;;;;;;0.00;0.00;;;16.00;99.90;;;;;;5025371;28;20450;-88
2022/09/24 13:27:36;;;;;;;0.00;0.00;;;16.00;99.90;;;;;;5023091;28;21004;-88
2022/09/24 13:30:16;;;;;;;0.00;0.00;;;16.00;99.90;;;;;;5023357;28;20561;-88
2022/09/24 13:32:50;;;;;;;0.00;0.00;;;16.10;99.90;;;;;;5021767;28;20566;-88
2022/09/24 13:35:23;;;;;;;0.00;0.00;;;16.00;99.90;;;;;;5022227;28;20441;-88
2022/09/24 13:37:55;;;;;;;0.00;0.00;;;16.10;99.90;;;;;;5021298;28;20458;-88
2022/09/24 13:40:27;;;;;;;0.00;0.00;;;16.10;99.90;;;;;;5023884;28;20478;-89
2022/09/24 13:43:02;;;;;;;0.00;0.00;;;16.10;99.90;;;;;;5019509;28;20462;-89